Time;durP1;ratioP1;P1;durP2;ratioP2;P2;SDS_P1;SDS_P2;PMS_P1;PMS_P2;Temp;Humidity;BMP_temperature;BMP_pressure;BME280_temperature;BME280_humidity;BME280_pressure;Samples;Min_cycle;Max_cycle;Signal;HPM_P1;HPM_P2
2023/04/21 00:00:11;;;;;;;13.27;7.53;;;;;;;10.45;87.31;101511.56;4893730;29;20255;-74
2023/04/21 00:02:41;;;;;;;10.57;8.50;;;;;;;10.39;87.81;101511.47;4895048;29;20215;-75
2023/04/21 00:05:12;;;;;;;14.53;8.70;;;;;;;10.29;88.25;101513.59;4894219;29;20563;-73
2023/04/21 00:07:42;;;;;;;14.17;9.07;;;;;;;10.20;88.84;101514.72;4894147;29;20545;-73
2023/04/21 00:10:12;;;;;;;19.10;8.70;;;;;;;10.10;89.58;101517.66;4891759;29;20964;-72
2023/04/21 00:12:41;;;;;;;12.10;7.20;;;;;;;9.96;90.20;101511.19;4888651;29;20815;-75
2023/04/21 00:15:11;;;;;;;14.85;8.50;;;;;;;9.86;91.17;101510.59;4896156;29;20775;-76
2023/04/21 00:17:40;;;;;;;14.50;8.80;;;;;;;9.79;91.51;101509.63;4898546;29;20201;-73
2023/04/21 00:20:10;;;;;;;10.50;8.60;;;;;;;9.70;91.91;101510.72;4889574;29;20456;-74
2023/04/21 00:22:39;;;;;;;14.43;10.88;;;;;;;9.63;92.40;101504.38;4890320;29;20224;-74
2023/04/21 00:25:09;;;;;;;13.18;8.27;;;;;;;9.55;92.94;101502.56;4893819;29;20739;-71
2023/04/21 00:27:39;;;;;;;10.88;9.23;;;;;;;9.51;93.32;101505.81;4892289;29;20515;-72
2023/04/21 00:30:10;;;;;;;11.38;7.70;;;;;;;9.45;93.77;101504.69;4892132;29;20220;-72
2023/04/21 00:32:39;;;;;;;9.85;8.73;;;;;;;9.42;94.05;101507.75;4893072;29;20204;-73
2023/04/21 00:35:09;;;;;;;15.50;9.40;;;;;;;9.40;94.24;101504.38;4893537;29;20249;-75
2023/04/21 00:37:39;;;;;;;11.52;8.18;;;;;;;9.38;94.37;101503.72;4892273;29;20283;-75
2023/04/21 00:40:09;;;;;;;10.77;8.10;;;;;;;9.31;94.53;101494.66;4892416;29;20217;-73
2023/04/21 00:42:42;;;;;;;10.75;9.00;;;;;;;9.25;94.96;101500.75;4893125;29;20207;-73
2023/04/21 00:45:13;;;;;;;11.57;8.27;;;;;;;9.19;95.46;101490.69;4893079;29;20623;-72
2023/04/21 00:47:43;;;;;;;24.92;10.10;;;;;;;9.19;95.60;101495.25;4893091;29;20224;-73
2023/04/21 00:50:13;;;;;;;11.95;8.95;;;;;;;9.14;95.80;101493.94;4891744;29;20808;-74
2023/04/21 00:52:45;;;;;;;15.00;9.32;;;;;;;9.12;95.89;101495.94;4890556;29;20250;-74
2023/04/21 00:55:15;;;;;;;12.80;10.20;;;;;;;9.09;96.11;101492.78;4890182;29;20202;-75
2023/04/21 00:57:47;;;;;;;11.40;10.30;;;;;;;9.03;96.44;101486.22;4887739;29;20203;-74
2023/04/21 01:00:17;;;;;;;19.30;9.27;;;;;;;9.02;96.77;101491.78;4895162;29;20218;-73
2023/04/21 01:02:47;;;;;;;16.35;11.00;;;;;;;9.00;96.75;101491.16;4895047;29;20270;-73
2023/04/21 01:05:17;;;;;;;18.15;8.50;;;;;;;9.00;96.71;101491.16;4890738;29;20605;-75
2023/04/21 01:07:46;;;;;;;13.00;10.07;;;;;;;8.97;96.72;101486.09;4897162;29;20224;-76
2023/04/21 01:10:16;;;;;;;15.10;11.05;;;;;;;9.04;96.09;101487.91;4889849;29;20258;-74
2023/04/21 01:12:48;;;;;;;12.55;9.05;;;;;;;9.14;94.92;101482.28;4891973;29;20695;-73
2023/04/21 01:15:18;;;;;;;10.30;7.90;;;;;;;9.21;93.69;101485.09;4908623;29;20701;-74
2023/04/21 01:17:48;;;;;;;13.83;10.23;;;;;;;9.33;92.20;101489.06;4893788;29;20191;-74
2023/04/21 01:20:17;;;;;;;18.42;10.48;;;;;;;9.38;91.16;101483.97;4891218;29;20470;-72
2023/04/21 01:22:50;;;;;;;11.68;10.48;;;;;;;9.42;90.42;101491.53;4886923;29;20196;-74
2023/04/21 01:25:21;;;;;;;21.38;11.13;;;;;;;9.38;90.07;101483.97;4886030;29;20211;-73
2023/04/21 01:27:51;;;;;;;15.48;10.15;;;;;;;9.33;90.03;101487.22;4906703;29;20225;-73
2023/04/21 01:30:22;;;;;;;13.15;10.48;;;;;;;9.30;90.19;101481.31;4892696;29;20217;-75
2023/04/21 01:32:52;;;;;;;14.30;10.45;;;;;;;9.27;89.84;101476.28;4892628;29;20608;-73
2023/04/21 01:35:21;;;;;;;21.75;12.07;;;;;;;9.26;89.72;101480.00;4897385;29;20207;-74
2023/04/21 01:37:52;;;;;;;12.52;10.45;;;;;;;9.22;89.68;101473.28;4909620;29;20205;-74
2023/04/21 01:40:21;;;;;;;14.68;11.20;;;;;;;9.14;90.14;101477.72;4888472;29;20303;-74
2023/04/21 01:42:50;;;;;;;21.20;11.50;;;;;;;9.15;89.81;101468.59;4893845;29;20211;-74
2023/04/21 01:45:19;;;;;;;14.38;11.23;;;;;;;9.20;89.39;101472.63;4896078;29;20232;-72
2023/04/21 01:47:48;;;;;;;17.30;11.27;;;;;;;9.18;88.92;101466.56;4903765;29;20212;-74
2023/04/21 01:50:18;;;;;;;18.58;10.98;;;;;;;9.14;89.06;101469.63;4892019;29;20216;-72
2023/04/21 01:52:47;;;;;;;14.02;11.57;;;;;;;9.11;89.16;101472.66;4892694;29;20202;-74
2023/04/21 01:55:18;;;;;;;12.82;10.85;;;;;;;9.11;88.74;101469.97;4891028;29;20283;-73
2023/04/21 01:57:46;;;;;;;16.15;11.38;;;;;;;9.19;88.06;101465.53;4896802;29;20500;-72
2023/04/21 02:00:16;;;;;;;13.15;11.77;;;;;;;9.21;87.37;101466.19;4895894;29;20234;-71
2023/04/21 02:02:45;;;;;;;17.92;12.90;;;;;;;9.20;87.44;101459.94;4894544;29;20217;-71
2023/04/21 02:05:14;;;;;;;18.35;10.52;;;;;;;9.21;86.80;101458.94;4897194;29;20199;-74
2023/04/21 02:07:43;;;;;;;14.50;12.02;;;;;;;9.22;86.45;101462.47;4888709;29;20560;-73
2023/04/21 02:10:13;;;;;;;14.10;12.05;;;;;;;9.20;86.45;101461.84;4893385;29;20220;-72
2023/04/21 02:12:45;;;;;;;15.73;12.65;;;;;;;9.19;86.38;101460.16;4887912;29;20203;-74
2023/04/21 02:15:14;;;;;;;13.80;10.40;;;;;;;9.10;86.58;101465.56;4893010;29;20196;-74
2023/04/21 02:17:43;;;;;;;15.68;11.75;;;;;;;9.02;86.94;101456.69;4891526;29;20200;-74
2023/04/21 02:20:13;;;;;;;16.20;12.35;;;;;;;8.92;87.41;101456.09;4893507;29;20235;-73
2023/04/21 02:22:42;;;;;;;16.27;12.40;;;;;;;8.87;87.67;101459.31;4892257;29;20200;-74
2023/04/21 02:25:11;;;;;;;14.60;11.55;;;;;;;8.84;87.46;101456.97;4892738;29;20208;-74
2023/04/21 02:27:40;;;;;;;13.13;11.77;;;;;;;8.83;87.54;101452.59;4911639;29;20232;-73
2023/04/21 02:30:10;;;;;;;15.02;13.18;;;;;;;8.85;87.33;101453.28;4914167;29;20223;-75
2023/04/21 02:32:40;;;;;;;14.45;12.15;;;;;;;8.85;86.89;101450.56;4906483;29;20193;-72
2023/04/21 02:35:09;;;;;;;12.98;11.57;;;;;;;8.89;86.51;101451.06;4896424;29;20257;-73
2023/04/21 02:37:38;;;;;;;17.20;12.05;;;;;;;8.90;86.30;101453.59;4891431;29;20199;-70
2023/04/21 02:40:09;;;;;;;13.90;12.07;;;;;;;8.99;85.32;101447.13;4891312;29;20303;-75
2023/04/21 02:42:38;;;;;;;17.77;13.05;;;;;;;9.07;84.62;101455.16;4894477;29;20664;-73
2023/04/21 02:45:10;;;;;;;16.23;12.05;;;;;;;9.24;83.17;101452.34;4892419;29;20258;-73
2023/04/21 02:47:39;;;;;;;17.30;12.15;;;;;;;9.26;82.75;101447.59;4895852;29;20286;-72
2023/04/21 02:50:09;;;;;;;13.80;12.40;;;;;;;9.25;82.46;101457.53;4891803;29;20223;-74
2023/04/21 02:52:38;;;;;;;15.20;12.27;;;;;;;9.23;82.48;101447.97;4896262;29;20234;-73
2023/04/21 02:55:08;;;;;;;18.52;12.30;;;;;;;9.20;82.61;101459.13;4898735;29;20262;-75
2023/04/21 02:57:37;;;;;;;16.00;12.48;;;;;;;9.21;82.37;101449.97;4896404;29;20460;-71
2023/04/21 03:00:11;;;;;;;16.73;14.00;;;;;;;9.21;82.11;101444.59;4892657;29;20211;-74
2023/04/21 03:02:40;;;;;;;18.48;14.70;;;;;;;9.21;81.82;101436.47;4894461;29;20208;-73
2023/04/21 03:05:11;;;;;;;15.60;13.95;;;;;;;9.15;82.04;101444.28;4896200;29;20191;-73
2023/04/21 03:07:40;;;;;;;17.10;12.65;;;;;;;9.12;82.19;101450.06;4895432;29;20195;-71
2023/04/21 03:10:09;;;;;;;15.65;12.55;;;;;;;9.07;82.37;101438.94;4902482;29;20228;-73
2023/04/21 03:12:38;;;;;;;20.20;15.07;;;;;;;9.02;82.68;101443.19;4899507;29;20208;-71
2023/04/21 03:15:07;;;;;;;13.07;11.80;;;;;;;9.03;82.62;101453.84;4891943;29;20706;-71
2023/04/21 03:17:38;;;;;;;20.33;13.65;;;;;;;9.00;82.35;101443.41;4896752;29;20251;-72
2023/04/21 03:20:10;;;;;;;20.23;14.70;;;;;;;8.97;82.38;101442.91;4900732;29;20261;-72
2023/04/21 03:22:39;;;;;;;16.17;11.48;;;;;;;9.01;82.10;101442.34;4892870;29;20208;-74
2023/04/21 03:25:09;;;;;;;16.15;12.65;;;;;;;8.97;82.21;101449.13;4891349;29;20201;-73
2023/04/21 03:27:38;;;;;;;18.38;14.40;;;;;;;8.96;82.21;101442.06;4895893;29;20200;-74
2023/04/21 03:30:08;;;;;;;15.52;13.80;;;;;;;8.93;82.09;101446.97;4898291;29;20279;-71
2023/04/21 03:32:38;;;;;;;15.68;14.15;;;;;;;8.89;82.40;101445.66;4903038;29;20204;-73
2023/04/21 03:35:07;;;;;;;17.60;12.15;;;;;;;8.90;82.24;101450.03;4901796;29;20200;-73
2023/04/21 03:37:36;;;;;;;14.60;13.05;;;;;;;8.87;82.22;101450.38;4895241;29;20200;-74
2023/04/21 03:40:06;;;;;;;18.10;12.77;;;;;;;8.91;81.68;101449.00;4900013;29;20250;-71
2023/04/21 03:42:35;;;;;;;18.05;13.55;;;;;;;8.91;81.53;101452.53;4892969;29;20200;-74
2023/04/21 03:45:05;;;;;;;16.00;12.98;;;;;;;8.95;81.24;101447.66;4912377;29;20196;-74
2023/04/21 03:47:35;;;;;;;16.45;13.07;;;;;;;9.00;81.02;101442.56;4907560;29;20208;-73
2023/04/21 03:50:06;;;;;;;17.27;14.65;;;;;;;8.91;81.29;101439.03;4899068;29;20218;-73
2023/04/21 03:52:35;;;;;;;16.38;13.52;;;;;;;8.87;81.60;101447.69;4897272;29;20286;-74
2023/04/21 03:55:07;;;;;;;20.67;13.70;;;;;;;8.83;81.79;101449.06;4893202;29;20223;-73
2023/04/21 03:57:36;;;;;;;13.60;12.02;;;;;;;8.80;81.95;101452.97;4897706;29;20608;-74
2023/04/21 04:00:07;;;;;;;15.57;11.25;;;;;;;8.86;81.32;101454.94;4892666;29;20268;-71
2023/04/21 04:02:40;;;;;;;17.25;12.77;;;;;;;8.92;80.71;101451.53;4895460;29;20206;-71
2023/04/21 04:05:10;;;;;;;16.58;12.43;;;;;;;8.96;80.61;101452.84;4893104;29;20206;-72
2023/04/21 04:07:39;;;;;;;21.50;15.80;;;;;;;8.99;80.48;101452.50;4894636;29;20544;-73
2023/04/21 04:10:09;;;;;;;15.57;13.25;;;;;;;8.96;80.58;101446.59;4898374;29;20212;-73
2023/04/21 04:12:37;;;;;;;15.15;13.50;;;;;;;8.99;80.39;101452.50;4895786;29;20206;-73
2023/04/21 04:15:08;;;;;;;18.00;13.80;;;;;;;9.00;80.48;101447.97;4896232;29;20199;-72
2023/04/21 04:17:36;;;;;;;15.32;11.25;;;;;;;9.03;80.13;101455.69;4896246;29;20218;-73
2023/04/21 04:20:08;;;;;;;13.75;12.45;;;;;;;9.16;79.48;101454.06;4890396;29;20243;-72
2023/04/21 04:22:38;;;;;;;16.27;14.60;;;;;;;9.28;79.06;101450.97;4914688;29;20212;-74
2023/04/21 04:25:08;;;;;;;20.40;14.10;;;;;;;9.40;78.34;101454.91;4945746;23;20219;-81
2023/04/21 04:27:37;;;;;;;17.60;12.20;;;;;;;9.55;77.22;101462.03;4920243;29;20216;-80
2023/04/21 04:30:08;;;;;;;16.98;13.32;;;;;;;9.92;75.89;101452.25;4902183;29;20205;-79
2023/04/21 04:32:48;;;;;;;15.57;13.13;;;;;;;10.27;74.36;101464.22;4923151;29;20195;-80
2023/04/21 04:35:18;;;;;;;17.25;13.07;;;;;;;10.56;72.31;101463.38;4931115;29;20200;-81
2023/04/21 04:37:49;;;;;;;15.25;13.52;;;;;;;10.75;71.43;101473.63;4936610;29;20200;-80
2023/04/21 04:40:18;;;;;;;17.90;13.65;;;;;;;11.00;70.35;101464.16;4921948;29;20180;-80
2023/04/21 04:42:47;;;;;;;17.50;14.13;;;;;;;11.13;69.34;101466.19;4921077;29;20204;-82
2023/04/21 04:45:20;;;;;;;16.87;14.10;;;;;;;11.12;69.36;101472.63;4921460;29;20540;-80
2023/04/21 04:47:57;;;;;;;14.37;12.80;;;;;;;11.57;68.02;101468.72;4952656;28;20445;-81
2023/04/21 04:50:35;;;;;;;25.33;13.50;;;;;;;11.56;67.41;101457.03;4933915;29;20464;-80
2023/04/21 04:53:11;;;;;;;19.30;15.17;;;;;;;11.96;65.85;101469.03;4930075;29;20438;-80
2023/04/21 04:55:42;;;;;;;16.60;13.67;;;;;;;12.09;65.34;101471.03;4920669;29;20461;-80
2023/04/21 04:58:15;;;;;;;16.30;13.03;;;;;;;12.05;65.02;101469.75;4931061;29;20434;-80
2023/04/21 05:01:01;;;;;;;18.40;13.37;;;;;;;12.38;63.98;101467.25;4935298;29;20411;-80
2023/04/21 05:03:35;;;;;;;14.40;13.00;;;;;;;12.61;62.91;101476.78;4926110;29;20423;-82
2023/04/21 05:06:05;;;;;;;23.00;13.63;;;;;;;12.75;61.96;101476.81;4920791;29;20421;-81
2023/04/21 05:09:15;;;;;;;15.50;13.13;;;;;;;12.72;61.69;101475.38;4920513;29;20419;-81
2023/04/21 05:12:11;;;;;;;14.10;12.60;;;;;;;12.36;62.53;101475.56;4920303;29;20486;-82
2023/04/21 05:15:18;;;;;;;18.53;14.17;;;;;;;11.19;66.72;101481.66;4915221;29;20489;-81
2023/04/21 05:20:43;;;;;;;14.30;12.80;;;;;;;10.14;71.65;101474.84;4912211;29;20469;-81
2023/04/21 05:23:14;;;;;;;14.30;12.80;;;;;;;10.11;72.35;101475.22;4919201;29;20441;-82
2023/04/21 05:29:14;;;;;;;15.60;13.38;;;;;;;10.21;71.90;101470.41;4919191;29;20420;-81
2023/04/21 05:35:05;;;;;;;19.13;13.25;;;;;;;10.28;71.91;101471.34;4921582;29;20208;-81
2023/04/21 05:37:36;;;;;;;16.77;13.13;;;;;;;10.41;71.54;101479.63;4934885;29;20192;-81
2023/04/21 05:40:06;;;;;;;15.60;13.23;;;;;;;10.49;71.52;101476.84;4925483;29;20189;-79
2023/04/21 05:42:40;;;;;;;18.07;13.43;;;;;;;10.52;71.06;101476.47;4920826;29;20201;-79
2023/04/21 05:45:10;;;;;;;19.95;14.38;;;;;;;10.66;70.86;101478.31;4913337;29;20465;-80
2023/04/21 05:47:39;;;;;;;14.93;13.37;;;;;;;10.74;70.41;101472.81;4916791;29;20184;-80
2023/04/21 05:50:09;;;;;;;17.13;15.33;;;;;;;10.82;69.63;101480.81;4924724;29;20503;-80
2023/04/21 05:52:39;;;;;;;16.20;14.13;;;;;;;10.91;69.34;101476.13;4930069;29;20543;-79
2023/04/21 05:55:08;;;;;;;16.73;13.93;;;;;;;11.08;68.94;101474.03;4921801;29;20443;-80
2023/04/21 05:57:39;;;;;;;18.50;13.30;;;;;;;11.01;68.68;101473.97;4920704;29;20412;-81
2023/04/21 06:00:09;;;;;;;15.57;13.90;;;;;;;11.14;68.31;101465.13;4920551;29;20414;-80
2023/04/21 06:02:38;;;;;;;13.30;11.97;;;;;;;11.22;68.11;101467.72;4924289;29;20422;-80
2023/04/21 06:05:07;;;;;;;15.73;13.23;;;;;;;11.37;67.20;101479.34;4923722;29;20430;-80
2023/04/21 06:07:37;;;;;;;14.40;12.93;;;;;;;11.41;66.78;101467.09;4924667;29;20416;-80
2023/04/21 06:10:18;;;;;;;15.37;13.53;;;;;;;11.54;66.41;101463.66;4923897;29;21438;-81
2023/04/21 06:12:52;;;;;;;13.77;12.47;;;;;;;11.71;66.13;101465.88;4923022;29;20546;-78
2023/04/21 06:15:22;;;;;;;16.10;13.00;;;;;;;11.73;65.32;101469.28;4915590;29;20449;-78
2023/04/21 06:17:59;;;;;;;16.50;12.60;;;;;;;11.80;64.98;101457.66;4912478;29;20436;-79
2023/04/21 06:20:36;;;;;;;14.73;12.70;;;;;;;11.78;65.16;101460.56;4920095;29;20397;-77
2023/04/21 06:23:08;;;;;;;15.20;13.67;;;;;;;12.03;64.89;101469.94;4925751;29;20439;-79
2023/04/21 06:25:37;;;;;;;19.60;11.30;;;;;;;11.94;64.18;101459.44;4924695;29;20533;-78
2023/04/21 06:28:08;;;;;;;17.13;12.97;;;;;;;12.16;64.03;101453.75;4926890;29;20412;-78
2023/04/21 06:30:38;;;;;;;19.53;13.90;;;;;;;12.19;63.97;101457.94;4922529;29;20437;-78
2023/04/21 06:33:08;;;;;;;18.53;11.70;;;;;;;12.31;63.04;101448.19;4921293;29;20432;-78
2023/04/21 06:35:38;;;;;;;12.93;11.60;;;;;;;12.40;62.98;101452.41;4922861;29;20459;-77
2023/04/21 06:38:10;;;;;;;16.03;12.90;;;;;;;12.52;62.18;101452.72;4922697;29;20439;-79
2023/04/21 06:40:43;;;;;;;15.17;12.20;;;;;;;12.53;61.91;101455.22;4931259;29;20437;-77
2023/04/21 06:43:18;;;;;;;12.63;11.30;;;;;;;12.89;61.37;101443.22;4925819;29;20402;-78
2023/04/21 06:45:51;;;;;;;18.13;12.30;;;;;;;13.01;60.20;101452.47;4922068;29;20448;-77
2023/04/21 06:48:20;;;;;;;13.67;12.30;;;;;;;13.03;60.24;101448.50;4924335;29;20449;-79
2023/04/21 06:50:51;;;;;;;17.43;12.50;;;;;;;13.03;60.31;101444.94;4920961;29;20482;-78
2023/04/21 06:56:45;;;;;;;21.40;12.00;;;;;;;13.42;59.33;101444.22;4917810;29;20505;-80
2023/04/21 06:59:32;;;;;;;18.37;13.10;;;;;;;13.58;58.59;101442.97;4924802;29;20450;-81
2023/04/21 07:02:26;;;;;;;17.50;12.73;;;;;;;13.41;58.51;101442.53;4925126;29;20397;-81
2023/04/21 07:04:57;;;;;;;14.07;12.60;;;;;;;13.42;57.60;101438.78;4932723;29;20485;-80
2023/04/21 07:07:26;;;;;;;18.67;13.60;;;;;;;13.74;57.56;101437.13;4926168;29;20453;-80
2023/04/21 07:09:55;;;;;;;16.67;12.77;;;;;;;13.82;57.07;101439.63;4922479;29;20469;-80
2023/04/21 07:12:24;;;;;;;15.40;11.90;;;;;;;14.01;56.47;101438.78;4925364;29;20441;-80
2023/04/21 07:14:54;;;;;;;16.07;12.20;;;;;;;13.96;56.22;101435.84;4929070;29;20455;-80
2023/04/21 07:17:23;;;;;;;14.70;12.73;;;;;;;14.02;55.88;101434.19;4924817;29;20434;-80
2023/04/21 07:19:53;;;;;;;12.83;11.43;;;;;;;14.18;55.67;101437.31;4922217;29;20463;-80
2023/04/21 07:22:22;;;;;;;13.27;11.60;;;;;;;14.43;54.80;101426.56;4927382;29;20401;-80
2023/04/21 07:24:51;;;;;;;13.37;12.00;;;;;;;14.44;54.13;101435.56;4930608;29;20434;-80
2023/04/21 07:27:22;;;;;;;15.03;11.90;;;;;;;14.37;54.46;101432.88;4923653;29;20408;-78
2023/04/21 07:29:56;;;;;;;17.67;13.80;;;;;;;14.17;55.39;101435.63;4940354;28;20479;-77
2023/04/21 07:32:25;;;;;;;15.47;13.60;;;;;;;14.25;55.47;101429.94;4924403;29;20483;-78
2023/04/21 07:34:55;;;;;;;16.63;12.80;;;;;;;14.29;55.11;101428.47;4921235;29;20467;-79
2023/04/21 07:37:24;;;;;;;17.60;14.20;;;;;;;14.51;54.54;101439.13;4882754;29;20510;-78
2023/04/21 07:39:54;;;;;;;26.10;12.30;;;;;;;14.78;54.25;101438.78;4884673;29;20429;-77
2023/04/21 07:42:25;;;;;;;14.40;12.53;;;;;;;14.80;53.07;101438.59;4886588;29;20431;-78
2023/04/21 07:44:59;;;;;;;14.80;13.07;;;;;;;14.58;53.31;101429.84;4887338;29;20466;-80
2023/04/21 07:47:34;;;;;;;14.30;13.00;;;;;;;14.88;53.05;101430.16;4884644;29;20424;-79
2023/04/21 07:50:05;;;;;;;12.73;11.27;;;;;;;14.99;53.00;101429.47;4885477;29;20627;-79
2023/04/21 07:52:35;;;;;;;13.93;12.00;;;;;;;15.20;52.56;101434.56;4892760;29;20493;-79
2023/04/21 07:55:06;;;;;;;15.70;13.40;;;;;;;15.13;51.91;101428.34;4893093;29;20439;-79
2023/04/21 07:57:37;;;;;;;18.13;13.50;;;;;;;15.07;52.47;101437.38;4889356;29;20440;-80
2023/04/21 08:00:11;;;;;;;19.27;12.23;;;;;;;15.29;52.71;101426.97;4883158;29;20488;-79
2023/04/21 08:02:41;;;;;;;15.13;13.63;;;;;;;15.16;52.36;101427.03;4884467;29;20409;-79
2023/04/21 08:05:11;;;;;;;17.00;12.60;;;;;;;15.19;52.60;101432.91;4884858;29;20468;-79
2023/04/21 08:07:40;;;;;;;17.00;13.20;;;;;;;15.33;52.53;101427.38;4899804;29;20459;-79
2023/04/21 08:10:11;;;;;;;13.60;11.60;;;;;;;15.41;51.81;101429.81;4909873;29;20443;-78
2023/04/21 08:12:40;;;;;;;15.40;12.13;;;;;;;15.40;51.39;101423.53;4884813;29;20527;-78
2023/04/21 08:15:11;;;;;;;14.90;12.90;;;;;;;15.43;52.06;101433.16;4883927;29;20454;-79
2023/04/21 08:17:40;;;;;;;13.40;11.87;;;;;;;15.58;52.15;101431.00;4884215;29;20523;-78
2023/04/21 08:20:11;;;;;;;16.03;12.60;;;;;;;15.75;51.75;101423.06;4889152;29;20420;-80
2023/04/21 08:22:40;;;;;;;13.13;11.83;;;;;;;15.90;50.87;101424.41;4885145;29;20450;-79
2023/04/21 08:25:10;;;;;;;15.97;12.47;;;;;;;15.72;51.51;101424.38;4905769;29;20467;-79
2023/04/21 08:27:40;;;;;;;19.80;12.27;;;;;;;15.90;51.56;101418.94;4883828;29;20437;-80
2023/04/21 08:30:12;;;;;;;13.30;12.03;;;;;;;16.15;50.59;101418.91;4891635;29;20463;-79
2023/04/21 08:32:41;;;;;;;13.40;11.67;;;;;;;16.28;49.37;101421.50;4898923;29;20501;-77
2023/04/21 08:35:11;;;;;;;12.13;10.93;;;;;;;16.23;49.43;101428.69;4900389;29;20448;-78
2023/04/21 08:37:40;;;;;;;14.47;12.97;;;;;;;16.06;50.71;101412.91;4883539;29;20437;-77
2023/04/21 08:40:11;;;;;;;13.97;12.40;;;;;;;15.71;51.28;101413.66;4882054;29;20467;-77
2023/04/21 08:42:40;;;;;;;13.73;12.33;;;;;;;15.87;51.37;101411.22;4897397;29;20421;-78
2023/04/21 08:45:11;;;;;;;15.27;13.67;;;;;;;16.09;50.54;101412.44;4899304;29;20468;-79
2023/04/21 08:47:42;;;;;;;13.97;12.50;;;;;;;16.04;50.92;101406.84;4876437;29;20492;-80
2023/04/21 08:50:14;;;;;;;16.97;12.03;;;;;;;16.13;50.41;101406.53;4909488;29;20432;-78
2023/04/21 08:52:44;;;;;;;13.27;11.87;;;;;;;16.29;49.67;101411.41;4906123;29;20606;-79
2023/04/21 08:55:14;;;;;;;12.93;11.37;;;;;;;16.39;48.09;101412.53;4890995;29;20676;-78
2023/04/21 08:57:43;;;;;;;15.27;13.77;;;;;;;16.31;48.47;101409.28;4875376;29;20450;-79
2023/04/21 09:00:15;;;;;;;12.13;10.93;;;;;;;16.49;48.93;101412.00;4889972;29;20458;-80
2023/04/21 09:02:59;;;;;;;13.73;10.47;;;;;;;16.79;48.88;101407.47;4884256;29;20431;-79
2023/04/21 09:05:32;;;;;;;12.90;11.60;;;;;;;17.10;48.56;101405.53;4886229;29;20448;-78
2023/04/21 09:08:12;;;;;;;16.10;11.83;;;;;;;16.95;48.37;101401.31;4874423;29;20440;-79
2023/04/21 09:10:45;;;;;;;13.60;12.20;;;;;;;17.16;48.00;101407.34;4888613;29;20450;-79
2023/04/21 09:13:14;;;;;;;16.77;12.10;;;;;;;17.01;46.60;101404.19;4888119;29;20453;-78
2023/04/21 09:15:47;;;;;;;13.70;12.20;;;;;;;16.99;46.92;101401.72;4882044;29;21012;-78
2023/04/21 09:18:19;;;;;;;17.93;12.83;;;;;;;17.20;46.34;101403.06;4895765;29;20497;-77
2023/04/21 09:20:50;;;;;;;15.47;11.60;;;;;;;17.15;46.57;101408.41;4882705;29;20418;-78
2023/04/21 09:23:21;;;;;;;16.23;12.47;;;;;;;17.15;46.70;101401.03;4882209;29;20418;-78
2023/04/21 09:25:51;;;;;;;13.97;11.77;;;;;;;17.53;46.39;101406.13;4892615;29;20436;-78
2023/04/21 09:28:21;;;;;;;14.07;12.57;;;;;;;17.45;46.02;101403.72;4900587;29;20473;-78
2023/04/21 09:30:56;;;;;;;11.67;10.53;;;;;;;17.19;46.07;101406.88;4899606;29;20426;-79
2023/04/21 09:33:25;;;;;;;12.70;10.70;;;;;;;17.26;45.45;101402.16;4898803;29;20447;-79
2023/04/21 09:36:03;;;;;;;12.30;11.00;;;;;;;17.49;44.62;101402.19;4885455;29;20492;-79
2023/04/21 09:38:33;;;;;;;15.03;11.30;;;;;;;17.62;44.23;101402.00;4875051;29;20550;-79
2023/04/21 09:41:03;;;;;;;14.87;12.13;;;;;;;17.78;44.64;101404.03;4857981;29;21019;-78
2023/04/21 09:43:32;;;;;;;11.67;10.60;;;;;;;18.03;44.67;101402.97;4888676;29;20459;-78
2023/04/21 09:46:05;;;;;;;15.40;11.13;;;;;;;18.12;44.22;101391.41;4877083;29;20776;-78
2023/04/21 09:48:36;;;;;;;14.00;11.30;;;;;;;18.21;43.63;101398.19;4873705;29;20456;-79
2023/04/21 09:51:06;;;;;;;15.13;11.80;;;;;;;18.09;43.49;101396.53;4869321;29;20444;-79
2023/04/21 09:53:41;;;;;;;14.73;11.37;;;;;;;17.91;44.22;101391.22;4858614;29;20483;-78
2023/04/21 09:56:13;;;;;;;16.30;10.90;;;;;;;17.99;43.75;101383.44;4876331;29;20507;-77
2023/04/21 09:58:47;;;;;;;12.40;10.83;;;;;;;18.00;44.00;101385.13;4870203;29;21018;-79
2023/04/21 10:01:18;;;;;;;15.13;11.30;;;;;;;18.08;44.13;101381.19;4871598;29;20463;-78
2023/04/21 10:03:49;;;;;;;12.60;10.20;;;;;;;18.20;43.01;101387.50;4878740;29;20463;-79
2023/04/21 10:06:19;;;;;;;11.10;10.00;;;;;;;18.00;43.62;101397.97;4885928;29;20450;-80
2023/04/21 10:08:49;;;;;;;12.13;9.93;;;;;;;18.39;42.35;101380.78;4868186;29;20443;-79
2023/04/21 10:11:19;;;;;;;11.23;10.00;;;;;;;18.84;41.70;101378.13;4873738;29;20440;-79
2023/04/21 10:13:48;;;;;;;15.73;12.10;;;;;;;18.76;40.94;101383.19;4886350;29;20523;-79
2023/04/21 10:16:21;;;;;;;13.17;10.10;;;;;;;18.44;41.33;101380.88;4899457;29;20558;-79
2023/04/21 10:18:50;;;;;;;13.13;10.97;;;;;;;18.56;40.37;101376.22;4887490;29;20431;-79
2023/04/21 10:21:23;;;;;;;14.30;10.70;;;;;;;18.39;40.75;101369.81;4886485;29;20457;-80
2023/04/21 10:23:53;;;;;;;13.60;11.10;;;;;;;18.53;40.68;101381.34;4880030;29;20434;-79
2023/04/21 10:29:30;;;;;;;10.73;9.70;;;;;;;18.73;39.74;101365.31;4874077;29;20485;-74
2023/04/21 10:32:40;;;;;;;9.63;8.70;;;;;;;19.09;38.85;101361.31;4891846;29;20471;-70
2023/04/21 10:35:13;;;;;;;13.73;10.40;;;;;;;18.96;39.46;101353.41;4878814;29;21030;-73
2023/04/21 10:37:42;;;;;;;11.30;10.20;;;;;;;18.56;39.92;101359.78;4880184;29;20934;-77
2023/04/21 10:40:34;;;;;;;10.90;9.87;;;;;;;18.84;39.38;101352.63;4876866;29;20456;-75
2023/04/21 10:43:42;;;;;;;10.90;9.80;;;;;;;19.12;39.24;101363.59;4881905;29;20438;-72
2023/04/21 10:46:33;;;;;;;10.17;9.17;;;;;;;19.55;37.98;101345.66;4878869;29;20415;-73
2023/04/21 10:49:08;;;;;;;12.80;9.93;;;;;;;19.64;37.69;101349.66;4880561;29;20456;-74
2023/04/21 10:52:05;;;;;;;11.27;10.17;;;;;;;19.24;39.48;101350.63;4877324;29;20435;-75
2023/04/21 10:54:44;;;;;;;10.57;9.33;;;;;;;19.50;38.40;101349.16;4875449;29;20414;-72
2023/04/21 10:57:16;;;;;;;11.37;10.33;;;;;;;19.42;37.80;101344.88;4875469;29;21004;-73
2023/04/21 10:59:46;;;;;;;10.80;9.60;;;;;;;19.25;38.31;101338.56;4881142;29;20464;-73
2023/04/21 11:02:17;;;;;;;12.50;9.60;;;;;;;19.37;37.91;101333.81;4877702;29;20419;-73
2023/04/21 11:04:53;;;;;;;13.30;9.40;;;;;;;19.52;38.73;101331.34;4877017;29;20648;-72
2023/04/21 11:07:23;;;;;;;9.63;8.67;;;;;;;19.69;38.06;101325.03;4881337;29;20444;-74
2023/04/21 11:09:58;;;;;;;9.93;8.97;;;;;;;19.64;38.28;101333.19;4886549;29;20472;-73
2023/04/21 11:12:29;;;;;;;11.80;9.60;;;;;;;19.44;37.94;101315.31;4883621;29;20423;-75
2023/04/21 11:14:59;;;;;;;10.53;9.30;;;;;;;19.51;38.31;101323.34;4881406;29;20440;-71
2023/04/21 11:17:28;;;;;;;12.63;10.23;;;;;;;19.51;38.16;101317.88;4872906;29;20435;-72
2023/04/21 11:19:58;;;;;;;13.97;10.07;;;;;;;19.75;37.36;101313.03;4881821;29;20546;-74
2023/04/21 11:22:28;;;;;;;11.70;9.73;;;;;;;19.94;37.11;101306.97;4878490;29;20452;-74
2023/04/21 12:13:53;;;;;;;11.57;10.10;;;;;;;20.51;35.65;101267.28;5036901;28;20600;-70
2023/04/21 12:16:27;;;;;;;10.43;9.40;;;;;;;20.06;35.18;101265.66;5021192;28;20988;-70
2023/04/21 12:18:56;;;;;;;10.33;9.33;;;;;;;20.55;35.16;101257.44;5021006;28;20408;-71
2023/04/21 12:21:29;;;;;;;10.37;9.47;;;;;;;20.55;35.57;101263.78;5026580;28;20445;-68
2023/04/21 12:23:58;;;;;;;12.17;11.10;;;;;;;20.47;35.68;101266.16;5019227;28;20444;-68
2023/04/21 12:26:27;;;;;;;10.00;9.20;;;;;;;20.25;36.09;101261.47;5028665;28;21098;-70
2023/04/21 12:28:59;;;;;;;10.33;9.47;;;;;;;20.12;36.05;101253.66;5027622;28;20660;-69
2023/04/21 12:31:28;;;;;;;10.33;9.33;;;;;;;20.10;36.37;101254.97;5027512;28;20517;-67
2023/04/21 12:33:58;;;;;;;10.70;9.80;;;;;;;20.08;36.25;101247.00;5018269;28;20460;-67
2023/04/21 12:36:28;;;;;;;11.10;9.70;;;;;;;20.03;35.59;101260.69;5027906;28;20396;-69
2023/04/21 12:38:57;;;;;;;10.70;9.13;;;;;;;20.02;35.38;101248.03;5040876;28;20434;-70